Time;durP1;ratioP1;P1;durP2;ratioP2;P2;SDS_P1;SDS_P2;PMS_P1;PMS_P2;Temp;Humidity;BMP_temperature;BMP_pressure;BME280_temperature;BME280_humidity;BME280_pressure;Samples;Min_cycle;Max_cycle;Signal;HPM_P1;HPM_P2
2022/06/15 00:00:15;;;;;;;6.55;2.40;;;;;;;-145.69;71.59;71279.03;4993339;28;20209;-81
2022/06/15 00:02:43;;;;;;;6.10;2.08;;;;;;;-145.69;73.55;71318.81;4992493;28;20661;-81
2022/06/15 00:05:12;;;;;;;6.57;2.17;;;;;;;-145.69;74.57;71346.69;4994435;28;20206;-80
2022/06/15 00:07:39;;;;;;;6.15;2.15;;;;;;;-145.69;77.20;71358.63;4996597;28;20670;-80
2022/06/15 00:10:08;;;;;;;5.25;2.00;;;;;;;-145.69;76.30;71338.72;4996734;28;20202;-81
2022/06/15 00:12:37;;;;;;;3.70;2.13;;;;;;;-145.69;78.79;71374.53;4996564;28;20205;-80
2022/06/15 00:15:03;;;;;;;6.70;2.20;;;;;;;-145.69;80.31;71382.50;4995924;28;20190;-81
2022/06/15 00:17:30;;;;;;;7.03;2.50;;;;;;;-145.69;82.24;71388.47;4996170;28;20260;-80
2022/06/15 00:19:57;;;;;;;6.53;2.60;;;;;;;-145.69;82.13;71406.38;4996535;28;20201;-81
2022/06/15 00:22:25;;;;;;;8.23;2.87;;;;;;;-145.69;81.50;71384.47;4996456;28;20244;-82
2022/06/15 00:24:51;;;;;;;4.40;2.40;;;;;;;-145.69;81.04;71370.56;4996272;28;20211;-81
2022/06/15 00:27:18;;;;;;;6.43;2.53;;;;;;;-145.69;79.36;71362.59;4995902;28;20209;-81
2022/06/15 00:29:44;;;;;;;8.53;2.60;;;;;;;-145.69;77.92;71334.75;4996100;28;20201;-80
2022/06/15 00:32:11;;;;;;;9.37;2.77;;;;;;;-145.69;79.50;71346.69;4996397;28;20201;-81
2022/06/15 00:34:38;;;;;;;4.35;2.40;;;;;;;-145.69;79.10;71338.72;4994912;28;20475;-80
2022/06/15 00:37:06;;;;;;;5.78;2.42;;;;;;;-145.69;76.68;71312.84;4996169;28;20234;-81
2022/06/15 00:39:34;;;;;;;5.07;2.57;;;;;;;-145.69;77.65;71322.81;4995780;28;20734;-80
2022/06/15 00:42:01;;;;;;;8.07;2.20;;;;;;;-145.69;78.90;71350.66;4996103;28;20296;-80
2022/06/15 00:44:34;;;;;;;7.43;2.30;;;;;;;-145.69;79.12;71350.66;4995620;28;20228;-80
2022/06/15 00:47:03;;;;;;;7.37;2.60;;;;;;;-145.69;79.31;71334.75;4995688;28;20233;-80
2022/06/15 00:49:32;;;;;;;7.83;2.40;;;;;;;-145.69;79.61;71346.69;4995959;28;20205;-81
2022/06/15 00:52:03;;;;;;;4.38;2.25;;;;;;;-145.69;79.14;71338.72;4996034;28;20204;-80
2022/06/15 00:54:30;;;;;;;5.83;2.30;;;;;;;-145.69;78.66;71322.81;4995646;28;20248;-82
2022/06/15 00:56:58;;;;;;;10.97;3.10;;;;;;;-145.69;81.11;71342.69;4995528;28;20729;-81
2022/06/15 00:59:30;;;;;;;6.27;2.50;;;;;;;-145.69;83.98;71370.56;4995607;28;20260;-81
2022/06/15 01:01:57;;;;;;;5.37;2.60;;;;;;;-145.69;84.21;71378.50;4995597;28;20201;-82
2022/06/15 01:04:30;;;;;;;8.63;2.77;;;;;;;-145.69;84.43;71380.50;4995440;28;20256;-80
2022/06/15 01:07:05;;;;;;;8.15;2.90;;;;;;;-145.69;83.20;71362.59;4995491;28;20387;-80
2022/06/15 01:09:36;;;;;;;6.73;2.77;;;;;;;-145.69;82.21;71360.59;4995159;28;20291;-80
2022/06/15 01:12:15;;;;;;;12.37;2.33;;;;;;;-145.69;84.11;71356.63;4995225;28;20252;-81
2022/06/15 01:15:07;;;;;;;7.50;2.47;;;;;;;-145.69;84.09;71382.50;4995169;28;20263;-82
2022/06/15 01:17:47;;;;;;;3.73;2.20;;;;;;;-145.69;88.35;71444.19;4975236;28;20230;-82
2022/06/15 01:20:31;;;;;;;5.13;2.73;;;;;;;-145.69;88.66;71480.00;4976204;28;20260;-81
2022/06/15 01:23:34;;;;;;;4.87;2.70;;;;;;;-145.69;94.01;71513.81;4975863;28;20213;-81
2022/06/15 01:26:17;;;;;;;6.10;3.07;;;;;;;-145.69;94.71;71521.78;4963047;28;20198;-82
2022/06/15 01:28:47;;;;;;;8.00;3.40;;;;;;;-145.69;94.90;71539.69;4975828;28;20257;-81
2022/06/15 01:31:24;;;;;;;11.03;2.97;;;;;;;-145.69;97.35;71541.69;4977977;28;20257;-81
2022/06/15 01:34:03;;;;;;;6.90;3.17;;;;;;;-145.69;96.39;71521.78;4995131;28;20255;-81
2022/06/15 01:36:38;;;;;;;5.90;2.97;;;;;;;-145.69;95.05;71497.91;4994876;28;20236;-81
2022/06/15 01:39:09;;;;;;;7.23;2.67;;;;;;;-145.69;91.79;71450.16;4994959;28;20271;-79
2022/06/15 01:41:39;;;;;;;7.43;3.03;;;;;;;-145.69;88.76;71404.38;4994766;28;20723;-80
2022/06/15 01:44:13;;;;;;;6.00;2.87;;;;;;;-145.69;88.65;71382.50;4994679;28;20263;-79
2022/06/15 01:46:44;;;;;;;5.20;2.60;;;;;;;-145.69;89.51;71382.50;4994442;28;20225;-79
2022/06/15 01:49:17;;;;;;;7.47;2.83;;;;;;;-145.69;89.21;71386.47;4994510;28;20314;-80
2022/06/15 01:51:45;;;;;;;8.30;2.60;;;;;;;-145.69;88.14;71378.50;4994749;28;20202;-79
2022/06/15 01:54:18;;;;;;;9.67;3.20;;;;;;;-145.69;85.51;71350.66;4994427;28;20209;-80
2022/06/15 01:56:48;;;;;;;5.23;2.70;;;;;;;-145.69;84.60;71342.69;4994636;28;20209;-79
2022/06/15 01:59:18;;;;;;;10.47;3.17;;;;;;;-145.69;83.92;71330.75;4994333;28;20225;-80
2022/06/15 02:01:53;;;;;;;8.47;2.90;;;;;;;-145.69;85.19;71334.75;4994430;28;20256;-79
2022/06/15 02:04:27;;;;;;;6.10;2.90;;;;;;;-145.69;85.86;71342.69;4994536;28;20248;-80
2022/06/15 02:07:04;;;;;;;9.13;2.90;;;;;;;-145.69;86.80;71348.66;4994009;28;20189;-80
2022/06/15 02:09:41;;;;;;;8.47;2.50;;;;;;;-145.69;89.14;71378.50;4994375;28;20201;-81
2022/06/15 02:12:09;;;;;;;18.20;3.43;;;;;;;-145.69;92.42;71430.25;4994275;28;20660;-80
2022/06/15 02:14:41;;;;;;;5.90;2.97;;;;;;;-145.69;95.50;71478.00;4994352;28;20263;-81
2022/06/15 02:17:15;;;;;;;7.97;3.40;;;;;;;-145.69;98.93;71511.84;4993951;28;20205;-81
2022/06/15 02:19:46;;;;;;;6.78;3.10;;;;;;;-145.69;100.00;71525.78;4993363;28;20468;-81
2022/06/15 02:22:16;;;;;;;10.43;3.40;;;;;;;-145.69;99.56;71501.88;4994306;28;20229;-79
2022/06/15 02:24:47;;;;;;;8.77;2.87;;;;;;;-145.69;98.15;71478.00;4993563;28;20552;-80
2022/06/15 02:27:15;;;;;;;7.57;3.30;;;;;;;-145.69;97.42;71470.06;4994069;28;20260;-80
2022/06/15 02:29:44;;;;;;;8.43;3.13;;;;;;;-145.69;98.99;71487.97;4993182;28;20212;-80
2022/06/15 02:32:13;;;;;;;7.07;3.33;;;;;;;-145.69;100.00;71509.84;4994028;28;20297;-81
2022/06/15 02:34:40;;;;;;;6.17;3.03;;;;;;;-145.69;100.00;71551.63;4993398;28;20272;-80
2022/06/15 02:37:06;;;;;;;4.93;2.87;;;;;;;-145.69;100.00;71569.53;4993749;28;20197;-81
2022/06/15 02:39:34;;;;;;;8.17;2.70;;;;;;;-145.69;100.00;71565.56;4993873;28;20229;-80
2022/06/15 02:42:29;;;;;;;6.87;3.00;;;;;;;-145.69;100.00;71601.38;4993861;28;20209;-80
2022/06/15 02:45:00;;;;;;;5.10;2.90;;;;;;;-145.69;100.00;71565.56;4993430;28;20236;-80
2022/06/15 02:47:31;;;;;;;5.53;3.20;;;;;;;-145.69;100.00;71583.47;4993503;28;20281;-80
2022/06/15 02:49:58;;;;;;;11.10;4.17;;;;;;;-145.69;100.00;71561.59;4994071;28;20202;-79
2022/06/15 02:52:29;;;;;;;7.40;3.37;;;;;;;-145.69;100.00;71537.72;4993267;28;20707;-80
2022/06/15 02:54:56;;;;;;;6.27;3.40;;;;;;;-145.69;100.00;71493.94;4993414;28;20194;-80
2022/06/15 02:57:24;;;;;;;7.93;3.00;;;;;;;-145.69;100.00;71480.00;4993582;28;20212;-79
2022/06/15 02:59:53;;;;;;;6.73;2.97;;;;;;;-145.69;100.00;71474.03;4993107;28;20229;-80
2022/06/15 03:02:20;;;;;;;5.77;3.00;;;;;;;-145.69;100.00;71470.06;4993378;28;20209;-80
2022/06/15 03:04:48;;;;;;;5.40;3.10;;;;;;;-145.69;100.00;71462.09;4993441;28;20209;-80
2022/06/15 03:07:15;;;;;;;7.37;3.03;;;;;;;-145.69;98.54;71450.16;4993636;28;20201;-80
2022/06/15 03:09:42;;;;;;;6.00;2.63;;;;;;;-145.69;98.29;71444.19;4993204;28;20204;-80
2022/06/15 03:12:10;;;;;;;7.33;3.17;;;;;;;-145.69;98.66;71446.16;4992944;28;20672;-80
2022/06/15 03:14:36;;;;;;;5.10;3.10;;;;;;;-145.69;96.98;71432.25;4992872;28;20230;-79
2022/06/15 03:17:04;;;;;;;6.57;3.20;;;;;;;-145.69;97.73;71438.22;4993509;28;20624;-82
2022/06/15 03:19:31;;;;;;;7.60;2.83;;;;;;;-145.69;97.90;71448.16;4992934;28;20691;-81
2022/06/15 03:21:58;;;;;;;5.87;3.00;;;;;;;-145.69;98.47;71466.06;4993293;28;20330;-81
2022/06/15 03:24:25;;;;;;;5.93;3.13;;;;;;;-145.69;99.48;71493.94;4993252;28;20209;-80
2022/06/15 03:26:51;;;;;;;5.13;3.00;;;;;;;-145.69;100.00;71513.81;4993214;28;20208;-80
2022/06/15 03:29:18;;;;;;;8.03;3.60;;;;;;;-145.69;100.00;71535.72;4992592;28;20773;-81
2022/06/15 03:31:44;;;;;;;5.27;3.20;;;;;;;-145.69;100.00;71553.63;4993190;28;20664;-81
2022/06/15 03:34:12;;;;;;;7.13;3.20;;;;;;;-145.69;100.00;71529.75;4992846;28;20727;-80
2022/06/15 03:36:38;;;;;;;4.87;3.03;;;;;;;-145.69;100.00;71503.88;4993420;28;20197;-81
2022/06/15 03:39:05;;;;;;;6.53;2.93;;;;;;;-145.69;100.00;71501.88;4992907;28;20233;-81
2022/06/15 03:41:32;;;;;;;8.00;3.27;;;;;;;-145.69;100.00;71527.75;4996876;28;20568;-81
2022/06/15 03:43:59;;;;;;;6.27;3.37;;;;;;;-145.69;100.00;71541.69;4996978;28;20194;-81
2022/06/15 03:46:25;;;;;;;7.30;3.10;;;;;;;-145.69;100.00;71547.66;4996371;28;20239;-81
2022/06/15 03:48:52;;;;;;;6.97;3.70;;;;;;;-145.69;100.00;71533.72;4996970;28;20201;-83
2022/06/15 03:51:20;;;;;;;9.97;3.30;;;;;;;-145.69;100.00;71543.69;4997004;28;20205;-80
2022/06/15 03:53:46;;;;;;;11.40;3.70;;;;;;;-145.69;100.00;71549.66;4996813;28;20206;-80
2022/06/15 03:56:12;;;;;;;9.10;3.40;;;;;;;-145.69;100.00;71557.59;4996619;28;20205;-81
2022/06/15 03:58:39;;;;;;;5.57;3.17;;;;;;;-145.69;100.00;71569.53;4996502;28;20460;-81
2022/06/15 04:01:05;;;;;;;5.40;3.37;;;;;;;-145.69;100.00;71581.50;4996884;28;20198;-81
2022/06/15 04:03:32;;;;;;;8.47;3.60;;;;;;;-145.69;100.00;71589.44;4996601;28;20201;-81
2022/06/15 04:06:01;;;;;;;6.60;3.07;;;;;;;-145.69;100.00;71591.44;4996734;28;20317;-82
2022/06/15 04:08:35;;;;;;;6.57;2.93;;;;;;;-145.69;100.00;71585.47;4996477;28;20210;-81
2022/06/15 04:11:03;;;;;;;5.70;3.33;;;;;;;-145.69;100.00;71593.44;4996781;28;20208;-81
2022/06/15 04:13:29;;;;;;;7.53;3.60;;;;;;;-145.69;100.00;71597.41;4996614;28;20228;-81
2022/06/15 04:15:56;;;;;;;8.20;3.27;;;;;;;-145.69;100.00;71583.47;4996557;28;20205;-81
2022/06/15 04:18:22;;;;;;;7.07;3.40;;;;;;;-145.69;100.00;71585.47;4995877;28;20688;-81
2022/06/15 04:20:49;;;;;;;8.33;3.60;;;;;;;-145.69;100.00;71575.50;4996262;28;20244;-81
2022/06/15 04:23:17;;;;;;;8.37;3.03;;;;;;;-145.69;100.00;71567.56;4996161;28;20201;-81
2022/06/15 04:25:48;;;;;;;4.47;3.37;;;;;;;-145.69;100.00;71555.63;4996175;28;20304;-81
2022/06/15 04:28:17;;;;;;;6.70;3.00;;;;;;;-145.69;100.00;71549.66;4996546;28;20197;-81
2022/06/15 04:30:43;;;;;;;6.87;3.50;;;;;;;-145.69;100.00;71537.72;4996052;28;20205;-81
2022/06/15 04:33:10;;;;;;;9.00;3.47;;;;;;;-145.69;100.00;71525.78;4995900;28;20204;-80
2022/06/15 04:35:37;;;;;;;7.83;3.20;;;;;;;-145.69;100.00;71523.78;4995988;28;20292;-81
2022/06/15 04:38:04;;;;;;;16.27;4.00;;;;;;;-145.69;100.00;71507.84;4996144;28;20212;-80
2022/06/15 04:40:31;;;;;;;7.40;4.20;;;;;;;-145.69;100.00;71493.94;4994789;28;20459;-81
2022/06/15 04:42:59;;;;;;;4.90;3.27;;;;;;;-145.69;100.00;71478.00;4996102;28;20201;-81
2022/06/15 04:45:26;;;;;;;8.63;3.60;;;;;;;-145.69;100.00;71464.09;4996021;28;20209;-81
2022/06/15 04:47:52;;;;;;;7.73;3.57;;;;;;;-145.69;100.00;71456.13;4995570;28;20267;-81
2022/06/15 04:50:19;;;;;;;7.13;3.30;;;;;;;-145.69;100.00;71442.19;4995656;28;20210;-81
2022/06/15 04:52:46;;;;;;;6.57;3.47;;;;;;;-145.69;100.00;71428.25;4995239;28;20260;-81
2022/06/15 04:55:16;;;;;;;8.63;3.30;;;;;;;-145.69;100.00;71416.31;4995931;28;20251;-80
2022/06/15 04:57:43;;;;;;;9.43;3.17;;;;;;;-145.69;100.00;71402.41;4995304;28;20202;-80
2022/06/15 05:00:15;;;;;;;5.63;2.90;;;;;;;-145.69;100.00;71382.50;4995398;28;20639;-81
2022/06/15 05:02:42;;;;;;;6.47;3.27;;;;;;;-145.69;100.00;71374.53;4995594;28;20212;-80
2022/06/15 05:05:09;;;;;;;5.27;3.13;;;;;;;-145.69;100.00;71368.56;4995563;28;20209;-81
2022/06/15 05:07:35;;;;;;;5.17;3.53;;;;;;;-145.69;100.00;71360.59;4995515;28;20201;-80
2022/06/15 05:10:02;;;;;;;6.50;3.40;;;;;;;-145.69;100.00;71354.63;4995586;28;20216;-80
2022/06/15 05:12:29;;;;;;;7.60;3.03;;;;;;;-145.69;100.00;71350.66;4995562;28;20212;-81
2022/06/15 05:14:56;;;;;;;7.77;3.20;;;;;;;-145.69;100.00;71330.75;4995184;28;20201;-81
2022/06/15 05:17:25;;;;;;;5.40;3.57;;;;;;;-145.69;100.00;71310.84;4995071;28;20596;-80
2022/06/15 05:19:51;;;;;;;4.93;2.73;;;;;;;-145.69;100.00;71298.94;4994419;28;20221;-80
2022/06/15 05:22:18;;;;;;;5.45;2.67;;;;;;;-145.69;100.00;71283.00;4995275;28;20201;-80
2022/06/15 05:24:44;;;;;;;7.10;3.20;;;;;;;-145.69;100.00;71261.13;4994714;28;20208;-80
2022/06/15 05:27:10;;;;;;;8.05;3.25;;;;;;;-145.69;100.00;71247.19;4995318;28;20197;-80
2022/06/15 05:29:38;;;;;;;5.38;3.17;;;;;;;-145.69;100.00;71227.28;4995064;28;20201;-81
2022/06/15 05:32:05;;;;;;;8.05;3.33;;;;;;;-145.69;99.66;71199.44;4994989;28;20209;-81
2022/06/15 05:34:33;;;;;;;5.40;2.75;;;;;;;-145.69;98.82;71179.53;4994431;28;20691;-80
2022/06/15 05:36:59;;;;;;;6.03;3.20;;;;;;;-145.69;100.00;71161.63;4995107;28;20197;-80
2022/06/15 05:39:26;;;;;;;4.80;2.95;;;;;;;-145.69;96.94;71119.84;4994652;28;20240;-81
2022/06/15 05:41:52;;;;;;;6.13;2.50;;;;;;;-145.69;91.34;71022.34;4994912;28;20210;-81
2022/06/15 05:44:23;;;;;;;6.32;2.30;;;;;;;-145.69;87.66;70912.91;4994729;28;20205;-81
2022/06/15 05:46:55;;;;;;;2.65;2.08;;;;;;;-145.69;81.68;70777.63;4994688;28;20288;-80
2022/06/15 05:49:22;;;;;;;5.82;2.08;;;;;;;-145.69;72.66;70662.22;4994715;28;20205;-82
2022/06/15 05:51:49;;;;;;;2.03;1.63;;;;;;;-145.69;69.67;70566.75;4994638;28;20584;-82
2022/06/15 05:54:16;;;;;;;5.10;2.05;;;;;;;-145.69;61.76;70455.34;4994446;28;20225;-82
2022/06/15 05:56:43;;;;;;;2.90;1.70;;;;;;;-145.69;60.74;70367.81;4994607;28;20212;-82
2022/06/15 05:59:09;;;;;;;4.18;2.03;;;;;;;-145.69;60.90;70300.16;4994171;28;20252;-82
2022/06/15 06:01:37;;;;;;;3.78;1.77;;;;;;;-145.69;54.94;70254.41;4994638;28;20611;-82
2022/06/15 06:04:05;;;;;;;2.83;1.55;;;;;;;-145.69;50.74;70224.56;4994145;28;20292;-82
2022/06/15 06:06:32;;;;;;;2.25;1.40;;;;;;;-145.69;50.95;70184.78;4994195;28;20252;-82
2022/06/15 06:09:00;;;;;;;3.47;1.75;;;;;;;-145.69;51.13;70200.69;4994380;28;20212;-80
2022/06/15 06:11:28;;;;;;;3.15;1.60;;;;;;;-145.69;52.72;70202.69;4994287;28;20647;-81
2022/06/15 06:13:54;;;;;;;3.67;1.40;;;;;;;-145.69;56.42;70320.06;4994125;28;20731;-82
2022/06/15 06:16:21;;;;;;;3.13;1.67;;;;;;;-145.69;57.39;70292.19;4994232;28;20201;-82
2022/06/15 06:18:48;;;;;;;3.60;1.73;;;;;;;-145.69;55.66;70258.38;4993867;28;20206;-83
2022/06/15 06:21:15;;;;;;;4.45;1.63;;;;;;;-145.69;56.88;70278.28;4994046;28;20206;-82
2022/06/15 06:23:41;;;;;;;3.88;1.48;;;;;;;-145.69;58.08;70300.16;4994052;28;20202;-83
2022/06/15 06:26:18;;;;;;;3.90;1.50;;;;;;;-145.69;58.74;70302.16;4994008;28;20210;-83
2022/06/15 06:28:45;;;;;;;5.22;1.60;;;;;;;-145.69;57.47;70248.44;4994102;28;20244;-81
2022/06/15 06:31:11;;;;;;;4.57;1.65;;;;;;;-145.69;57.40;70260.38;4993948;28;20249;-82
2022/06/15 06:33:38;;;;;;;2.92;1.80;;;;;;;-145.69;54.56;70238.50;4994113;28;20232;-82
2022/06/15 06:36:08;;;;;;;5.00;1.80;;;;;;;-145.69;59.56;70343.94;4993703;28;20209;-82
2022/06/15 06:38:44;;;;;;;4.25;1.90;;;;;;;-145.69;61.09;70379.72;4993361;28;20197;-82
2022/06/15 06:41:20;;;;;;;4.47;1.90;;;;;;;-145.69;62.67;70425.50;4994096;28;20615;-82
2022/06/15 06:43:52;;;;;;;2.25;1.50;;;;;;;-145.69;63.96;70343.94;4993854;28;20615;-82
2022/06/15 06:46:18;;;;;;;3.42;1.80;;;;;;;-145.69;62.04;70367.81;4993472;28;20688;-82
2022/06/15 06:48:45;;;;;;;3.70;1.60;;;;;;;-145.69;60.55;70339.94;4993494;28;20267;-82
2022/06/15 06:51:11;;;;;;;4.10;1.73;;;;;;;-145.69;61.20;70429.47;4993871;28;20202;-82
2022/06/15 06:53:38;;;;;;;2.97;1.83;;;;;;;-145.69;62.69;70453.34;4993607;28;20205;-82
2022/06/15 06:56:07;;;;;;;3.90;1.95;;;;;;;-145.69;68.56;70453.34;4993218;28;20288;-82
2022/06/15 06:58:35;;;;;;;7.93;1.92;;;;;;;-145.69;66.88;70425.50;4993385;28;20296;-82
2022/06/15 07:01:02;;;;;;;4.40;2.10;;;;;;;-145.69;67.40;70391.66;4993358;28;20276;-82
2022/06/15 07:03:29;;;;;;;5.38;1.92;;;;;;;-145.69;68.92;70337.97;4993282;28;20198;-81
2022/06/15 07:06:01;;;;;;;3.33;1.85;;;;;;;-145.69;61.37;70332.00;4993711;28;20248;-82
2022/06/15 07:08:31;;;;;;;4.32;2.30;;;;;;;-145.69;57.54;70314.09;4993743;28;20260;-81
2022/06/15 07:10:59;;;;;;;3.63;2.20;;;;;;;-145.69;56.75;70306.13;4993359;28;20206;-81
2022/06/15 07:13:27;;;;;;;7.43;2.22;;;;;;;-145.69;57.92;70359.84;4993544;28;20296;-81
2022/06/15 07:15:55;;;;;;;6.38;2.33;;;;;;;-145.69;61.37;70407.59;4996236;28;20201;-81
2022/06/15 07:18:21;;;;;;;2.65;1.80;;;;;;;-145.69;60.19;70385.69;4997266;28;20256;-81
2022/06/15 07:20:51;;;;;;;4.63;2.17;;;;;;;-145.69;59.23;70371.78;4996864;28;20236;-82
2022/06/15 07:23:17;;;;;;;7.25;2.30;;;;;;;-145.69;62.89;70375.75;4996971;28;20571;-82
2022/06/15 07:25:43;;;;;;;4.32;2.22;;;;;;;-145.69;61.64;70377.75;4997425;28;20255;-82
2022/06/15 07:28:10;;;;;;;3.50;2.15;;;;;;;-145.69;65.72;70363.81;4997463;28;20205;-82
2022/06/15 07:30:37;;;;;;;4.95;2.33;;;;;;;-145.69;58.93;70359.84;4996938;28;20453;-81
2022/06/15 07:33:06;;;;;;;5.05;2.25;;;;;;;-145.69;58.00;70345.91;4997364;28;20216;-81
2022/06/15 07:35:36;;;;;;;4.82;2.20;;;;;;;-145.69;57.91;70339.94;4997223;28;20251;-82
2022/06/15 07:38:05;;;;;;;3.53;2.05;;;;;;;-145.69;60.69;70312.09;4996863;28;20545;-81
2022/06/15 07:40:31;;;;;;;6.07;2.30;;;;;;;-145.69;63.08;70310.09;4997031;28;20688;-82
2022/06/15 07:43:09;;;;;;;4.90;2.45;;;;;;;-145.69;63.54;70294.19;4997106;28;20284;-82
2022/06/15 07:45:36;;;;;;;3.30;1.83;;;;;;;-145.69;58.34;70300.16;4997187;28;20205;-80
2022/06/15 07:50:49;;;;;;;3.47;2.20;;;;;;;-145.69;60.84;70264.34;4996983;28;20555;-79
2022/06/15 07:53:19;;;;;;;7.20;2.13;;;;;;;-145.69;55.95;70280.28;4996889;28;20600;-80
2022/06/15 07:55:47;;;;;;;5.07;2.00;;;;;;;-145.69;54.63;70268.34;4996734;28;20214;-81
2022/06/15 07:58:18;;;;;;;7.68;2.30;;;;;;;-145.69;54.67;70256.41;4996350;28;20206;-80
2022/06/15 08:00:47;;;;;;;3.55;1.70;;;;;;;-145.69;48.21;70280.28;4984504;28;20257;-81
2022/06/15 08:03:14;;;;;;;4.05;2.05;;;;;;;-145.69;49.78;70296.19;4996560;28;20200;-81
2022/06/15 08:05:44;;;;;;;5.60;2.00;;;;;;;-145.69;52.96;70284.25;4996409;28;20193;-81
2022/06/15 08:08:15;;;;;;;4.57;1.73;;;;;;;-145.69;48.01;70300.16;4996240;28;20595;-82
2022/06/15 08:10:42;;;;;;;5.32;1.80;;;;;;;-145.69;48.86;70282.25;4996527;28;20533;-81
2022/06/15 08:13:09;;;;;;;4.28;1.63;;;;;;;-145.69;45.99;70280.28;4996708;28;20206;-80
2022/06/15 08:15:36;;;;;;;11.68;2.00;;;;;;;-145.69;52.38;70270.31;4996551;28;20654;-78
2022/06/15 08:18:05;;;;;;;5.53;1.98;;;;;;;-145.69;57.94;70232.53;4996614;28;20205;-78
2022/06/15 08:20:36;;;;;;;5.55;2.00;;;;;;;-145.69;54.67;70206.66;4996322;28;20240;-77
2022/06/15 08:23:06;;;;;;;5.53;2.70;;;;;;;-145.69;53.40;70210.66;4996436;28;20197;-79
2022/06/15 08:25:41;;;;;;;5.72;2.28;;;;;;;-145.69;53.99;70204.69;4993236;28;20197;-79
2022/06/15 08:28:10;;;;;;;11.77;2.38;;;;;;;-145.69;66.13;70176.81;4991629;28;20213;-78
2022/06/15 08:30:37;;;;;;;5.40;2.30;;;;;;;-145.69;54.19;70176.81;4995855;28;20208;-80
2022/06/15 08:33:10;;;;;;;8.77;2.33;;;;;;;-145.69;49.05;70202.69;4996131;28;20202;-79
2022/06/15 08:35:39;;;;;;;2.35;1.70;;;;;;;-145.69;46.46;70200.69;4996099;28;20217;-80
2022/06/15 08:38:06;;;;;;;5.40;1.80;;;;;;;-145.69;46.29;70214.63;4996169;28;20209;-79
2022/06/15 08:40:45;;;;;;;6.25;1.70;;;;;;;-145.69;45.12;70196.72;4995743;28;20233;-79
2022/06/15 08:43:24;;;;;;;5.07;2.08;;;;;;;-145.69;43.01;70206.66;4995961;28;20227;-80
2022/06/15 08:45:57;;;;;;;4.55;1.65;;;;;;;-145.69;42.90;70198.72;4995736;28;20812;-79
2022/06/15 08:48:36;;;;;;;2.55;1.60;;;;;;;-145.69;42.65;70184.78;4995946;28;20197;-78
2022/06/15 08:51:10;;;;;;;3.10;1.60;;;;;;;-145.69;44.55;70192.75;4994698;28;20440;-79
2022/06/15 08:53:46;;;;;;;3.22;1.50;;;;;;;-145.69;42.68;70182.78;4995809;28;20604;-79
2022/06/15 08:56:18;;;;;;;4.72;2.15;;;;;;;-145.69;43.77;70192.75;4995703;28;20207;-79
2022/06/15 08:58:48;;;;;;;5.10;1.70;;;;;;;-145.69;44.35;70202.69;4995780;28;20260;-80
2022/06/15 09:01:26;;;;;;;5.45;1.63;;;;;;;-145.69;43.66;70184.78;4995592;28;20320;-79
2022/06/15 09:04:08;;;;;;;4.38;2.10;;;;;;;-145.69;43.31;70184.78;4995887;28;20296;-80
2022/06/15 09:06:54;;;;;;;4.25;1.67;;;;;;;-145.69;42.41;70170.84;4976073;28;20202;-78
2022/06/15 09:09:40;;;;;;;3.17;1.42;;;;;;;-145.69;41.03;70168.88;4976344;28;20288;-77
2022/06/15 09:15:22;;;;;;;2.88;1.50;;;;;;;-145.69;39.91;70182.78;4975899;28;20210;-77
2022/06/15 09:17:51;;;;;;;5.38;1.80;;;;;;;-145.69;39.80;70170.84;4984212;28;20201;-77
2022/06/15 09:20:23;;;;;;;4.97;1.65;;;;;;;-145.69;39.93;70156.94;4995197;28;20233;-77
2022/06/15 09:22:59;;;;;;;7.50;1.80;;;;;;;-145.69;42.61;70168.88;4995370;28;20205;-78
2022/06/15 09:25:31;;;;;;;4.18;1.50;;;;;;;-145.69;38.36;70154.94;4994630;28;20209;-76
2022/06/15 09:28:06;;;;;;;2.40;1.52;;;;;;;-145.69;41.67;70121.13;4995238;28;20201;-76
2022/06/15 09:30:41;;;;;;;5.93;1.60;;;;;;;-145.69;38.65;70129.09;4994906;28;20201;-77
2022/06/15 09:33:15;;;;;;;2.63;1.55;;;;;;;-145.69;41.62;70145.00;4994736;28;20564;-77
2022/06/15 09:35:46;;;;;;;2.65;1.38;;;;;;;-145.69;41.04;70129.09;4994931;28;20240;-78
2022/06/15 09:38:14;;;;;;;4.15;1.73;;;;;;;-145.69;41.01;70145.00;4994728;28;20259;-78
2022/06/15 09:40:47;;;;;;;3.83;1.70;;;;;;;-145.69;42.31;70152.97;4994933;28;20232;-78
2022/06/15 09:43:23;;;;;;;2.28;1.48;;;;;;;-145.69;42.13;70131.06;4994568;28;20206;-78
2022/06/15 09:45:59;;;;;;;2.42;1.40;;;;;;;-145.69;40.11;70127.09;4994524;28;20224;-78
2022/06/15 09:48:35;;;;;;;6.38;1.58;;;;;;;-145.69;40.63;70121.13;4994226;28;20817;-77
2022/06/15 09:51:14;;;;;;;3.78;1.80;;;;;;;-145.69;39.18;70143.00;4994406;28;20679;-78
2022/06/15 09:53:51;;;;;;;2.97;1.60;;;;;;;-145.69;41.36;70115.16;4994714;28;20197;-78
2022/06/15 09:56:20;;;;;;;5.22;1.52;;;;;;;-145.69;40.87;70101.25;4994631;28;20204;-78
2022/06/15 09:58:54;;;;;;;2.30;1.40;;;;;;;-145.69;39.12;70097.25;4994561;28;20205;-77
2022/06/15 10:01:21;;;;;;;6.57;1.80;;;;;;;-145.69;37.39;70119.13;4994593;28;20229;-77
2022/06/15 10:03:51;;;;;;;2.25;1.45;;;;;;;-145.69;40.70;70111.19;4994077;28;20666;-78
2022/06/15 10:06:24;;;;;;;3.88;1.30;;;;;;;-145.69;41.20;70107.19;4994204;28;20197;-77
2022/06/15 10:08:52;;;;;;;4.68;1.50;;;;;;;-145.69;39.07;70079.34;4994188;28;20292;-77
2022/06/15 10:11:22;;;;;;;3.30;1.48;;;;;;;-145.69;38.67;70073.38;4994135;28;20201;-79
2022/06/15 10:13:49;;;;;;;5.15;1.45;;;;;;;-145.69;39.96;70057.47;4994372;28;20205;-78
2022/06/15 10:16:25;;;;;;;8.98;2.03;;;;;;;-145.69;39.37;70059.47;4994139;28;20205;-78
2022/06/15 10:18:55;;;;;;;4.03;1.77;;;;;;;-145.69;39.45;70071.41;4994189;28;20260;-78
2022/06/15 10:21:24;;;;;;;4.95;1.60;;;;;;;-145.69;39.19;70039.56;4993825;28;20229;-78
2022/06/15 10:23:58;;;;;;;6.70;1.42;;;;;;;-145.69;39.85;70055.47;4994005;28;20260;-79
2022/06/15 10:26:29;;;;;;;5.20;1.58;;;;;;;-145.69;38.62;70031.63;4994260;28;20201;-79
2022/06/15 10:28:59;;;;;;;3.42;1.40;;;;;;;-145.69;40.83;70017.69;4994165;28;20289;-79
2022/06/15 10:31:30;;;;;;;3.72;1.58;;;;;;;-145.69;39.39;70021.66;4994122;28;20205;-78
2022/06/15 10:33:57;;;;;;;3.17;1.50;;;;;;;-145.69;39.19;70017.69;4994064;28;20241;-78
2022/06/15 10:36:29;;;;;;;3.72;1.45;;;;;;;-145.69;39.09;70019.69;4993739;28;20687;-77
2022/06/15 10:39:02;;;;;;;6.25;1.67;;;;;;;-145.69;39.49;70013.72;4993819;28;20197;-77
2022/06/15 10:41:48;;;;;;;2.80;1.45;;;;;;;-145.69;38.45;70009.72;4993731;28;20233;-78
2022/06/15 10:44:27;;;;;;;3.47;1.40;;;;;;;-145.69;39.85;69993.81;4993701;28;20213;-78
2022/06/15 10:46:58;;;;;;;10.00;1.55;;;;;;;-145.69;42.08;70001.78;4993729;28;20587;-78
2022/06/15 10:49:25;;;;;;;3.40;1.58;;;;;;;-145.69;37.88;69985.88;4992886;28;20252;-77
2022/06/15 10:51:53;;;;;;;3.97;1.48;;;;;;;-145.69;38.11;69969.94;4993856;28;20197;-78
2022/06/15 10:54:30;;;;;;;2.70;1.42;;;;;;;-145.69;38.86;69952.03;4993467;28;20200;-78
2022/06/15 11:02:50;;;;;;;2.60;1.30;;;;;;;-145.69;35.94;69934.16;4993218;28;20612;-79
2022/06/15 11:05:20;;;;;;;1.45;1.20;;;;;;;-145.69;37.39;69928.19;4993454;28;20564;-79
2022/06/15 11:07:49;;;;;;;1.98;1.05;;;;;;;-145.69;35.44;69938.13;4993326;28;20691;-79
2022/06/15 11:10:26;;;;;;;3.70;1.40;;;;;;;-145.69;34.45;69898.34;4992983;28;20448;-79
2022/06/15 11:12:57;;;;;;;5.03;1.60;;;;;;;-145.69;37.58;69894.38;4993112;28;20268;-80
2022/06/15 11:18:01;;;;;;;2.88;1.42;;;;;;;-145.69;39.80;69894.38;4993520;28;20208;-79
2022/06/15 11:18:31;;;;;;;3.83;1.60;;;;;;;-145.69;35.36;69886.41;4991138;28;20205;-79
2022/06/15 11:21:04;;;;;;;1.95;1.40;;;;;;;-145.69;36.08;69914.25;4993374;28;20220;-79
2022/06/15 11:23:49;;;;;;;4.30;1.50;;;;;;;-145.69;34.62;69898.34;4993184;28;20201;-79
2022/06/15 11:29:21;;;;;;;5.60;2.50;;;;;;;-145.69;35.11;69868.50;4993699;28;20295;-79
2022/06/15 11:31:50;;;;;;;3.03;1.40;;;;;;;-145.69;34.47;69846.63;4993422;28;20209;-79
2022/06/15 11:34:21;;;;;;;4.75;2.00;;;;;;;-145.69;34.84;69826.72;4992964;28;20204;-77
2022/06/15 11:36:54;;;;;;;6.50;1.27;;;;;;;-145.69;35.15;69800.88;4993499;28;20202;-78
2022/06/15 11:39:24;;;;;;;4.03;1.60;;;;;;;-145.69;33.71;69812.81;4992959;28;20197;-79
2022/06/15 11:41:52;;;;;;;4.22;1.60;;;;;;;-145.69;36.15;69802.88;4993326;28;20232;-79